Saint-Casimir, Canada
Current Conditions -  °F | °C
As of 10:00 AM on Thursday 30 Oct 2014 (Local Time) from CYOY Reporting Station
Broken Clouds Broken Clouds  
Wind Chill: 37°   Ceiling: 2300
Heat Index: 41°   Visibility: 15mi
Dew Point: 34°   Wind: 6mph
Humidity: 76%   Direction: 250°WSW
Pressure: 29.87"   Gusts: NA
Location:  46.67°N, 72.13°W
Report Text: CYOY 301400Z 25005KT 15SM BKN023 BKN087 05/01 A2987 RMK SC7AC1DIST SH N QUAD SLP123
Loading
Personal Weather Stations






























Interactive Weather Map
Tropical Storm Tracking
New forecast layout! Learn more

10-Day Weather Forecast

Advertisements
Track Severe Weather on mobile